sensor_id;sensor_type;location;lat;lon;timestamp;P1;durP1;ratioP1;P2;durP2;ratioP2
57828;SDS011;43657;52.698;6.314;2022-07-30T00:02:17;13.15;;;11.80;;
57828;SDS011;43657;52.698;6.314;2022-07-30T00:04:44;12.77;;;11.57;;
57828;SDS011;43657;52.698;6.314;2022-07-30T00:07:10;11.48;;;10.32;;
57828;SDS011;43657;52.698;6.314;2022-07-30T00:09:36;12.80;;;11.60;;
57828;SDS011;43657;52.698;6.314;2022-07-30T00:12:02;13.32;;;12.05;;
57828;SDS011;43657;52.698;6.314;2022-07-30T00:14:29;12.05;;;10.75;;
57828;SDS011;43657;52.698;6.314;2022-07-30T00:16:54;13.80;;;11.45;;
57828;SDS011;43657;52.698;6.314;2022-07-30T00:19:20;15.80;;;14.20;;
57828;SDS011;43657;52.698;6.314;2022-07-30T00:21:45;14.43;;;13.05;;
57828;SDS011;43657;52.698;6.314;2022-07-30T00:24:11;14.63;;;13.23;;
57828;SDS011;43657;52.698;6.314;2022-07-30T00:26:37;15.82;;;14.30;;
57828;SDS011;43657;52.698;6.314;2022-07-30T00:29:03;14.60;;;13.18;;
57828;SDS011;43657;52.698;6.314;2022-07-30T00:31:29;16.10;;;14.50;;
57828;SDS011;43657;52.698;6.314;2022-07-30T00:33:55;15.13;;;13.73;;
57828;SDS011;43657;52.698;6.314;2022-07-30T00:36:21;15.05;;;13.65;;
57828;SDS011;43657;52.698;6.314;2022-07-30T00:38:46;14.75;;;13.35;;
57828;SDS011;43657;52.698;6.314;2022-07-30T00:41:12;13.15;;;11.98;;
57828;SDS011;43657;52.698;6.314;2022-07-30T00:43:38;15.43;;;13.95;;
57828;SDS011;43657;52.698;6.314;2022-07-30T00:46:03;16.35;;;14.70;;
57828;SDS011;43657;52.698;6.314;2022-07-30T00:48:29;16.13;;;14.48;;
57828;SDS011;43657;52.698;6.314;2022-07-30T00:50:55;16.33;;;14.73;;
57828;SDS011;43657;52.698;6.314;2022-07-30T00:53:20;20.98;;;15.25;;
57828;SDS011;43657;52.698;6.314;2022-07-30T00:55:46;17.70;;;15.55;;
57828;SDS011;43657;52.698;6.314;2022-07-30T00:58:12;20.77;;;17.17;;
57828;SDS011;43657;52.698;6.314;2022-07-30T01:00:37;20.75;;;18.48;;
57828;SDS011;43657;52.698;6.314;2022-07-30T01:03:03;22.50;;;19.73;;
57828;SDS011;43657;52.698;6.314;2022-07-30T01:05:29;16.77;;;15.07;;
57828;SDS011;43657;52.698;6.314;2022-07-30T01:07:55;17.52;;;15.73;;
57828;SDS011;43657;52.698;6.314;2022-07-30T01:10:20;20.13;;;17.02;;
57828;SDS011;43657;52.698;6.314;2022-07-30T01:12:46;18.48;;;16.58;;
57828;SDS011;43657;52.698;6.314;2022-07-30T01:15:12;20.30;;;17.83;;
57828;SDS011;43657;52.698;6.314;2022-07-30T01:17:38;18.13;;;16.33;;
57828;SDS011;43657;52.698;6.314;2022-07-30T01:20:05;19.13;;;17.17;;
57828;SDS011;43657;52.698;6.314;2022-07-30T01:28:16;21.25;;;19.10;;
57828;SDS011;43657;52.698;6.314;2022-07-30T01:30:42;20.88;;;18.35;;
57828;SDS011;43657;52.698;6.314;2022-07-30T01:33:10;24.33;;;18.70;;
57828;SDS011;43657;52.698;6.314;2022-07-30T01:35:39;18.92;;;17.13;;
57828;SDS011;43657;52.698;6.314;2022-07-30T01:38:07;19.55;;;16.73;;
57828;SDS011;43657;52.698;6.314;2022-07-30T01:40:35;17.35;;;15.75;;
57828;SDS011;43657;52.698;6.314;2022-07-30T01:43:03;18.98;;;17.08;;
57828;SDS011;43657;52.698;6.314;2022-07-30T01:45:31;18.25;;;16.60;;
57828;SDS011;43657;52.698;6.314;2022-07-30T01:47:58;17.63;;;16.08;;
57828;SDS011;43657;52.698;6.314;2022-07-30T01:50:26;17.05;;;15.40;;
57828;SDS011;43657;52.698;6.314;2022-07-30T01:52:54;18.25;;;16.70;;
57828;SDS011;43657;52.698;6.314;2022-07-30T01:55:22;25.98;;;20.17;;
57828;SDS011;43657;52.698;6.314;2022-07-30T01:57:51;17.55;;;16.05;;
57828;SDS011;43657;52.698;6.314;2022-07-30T02:00:19;16.50;;;15.00;;
57828;SDS011;43657;52.698;6.314;2022-07-30T02:02:46;22.35;;;16.65;;
57828;SDS011;43657;52.698;6.314;2022-07-30T02:05:12;17.48;;;15.88;;
57828;SDS011;43657;52.698;6.314;2022-07-30T02:07:46;17.77;;;16.13;;
57828;SDS011;43657;52.698;6.314;2022-07-30T02:10:19;18.58;;;16.63;;
57828;SDS011;43657;52.698;6.314;2022-07-30T02:12:53;37.78;;;20.90;;
57828;SDS011;43657;52.698;6.314;2022-07-30T02:15:28;35.35;;;23.50;;
57828;SDS011;43657;52.698;6.314;2022-07-30T02:18:03;23.30;;;18.80;;
57828;SDS011;43657;52.698;6.314;2022-07-30T02:20:31;27.20;;;22.05;;
57828;SDS011;43657;52.698;6.314;2022-07-30T02:23:02;23.63;;;21.23;;
57828;SDS011;43657;52.698;6.314;2022-07-30T02:25:32;32.00;;;21.20;;
57828;SDS011;43657;52.698;6.314;2022-07-30T02:28:04;40.42;;;21.25;;
57828;SDS011;43657;52.698;6.314;2022-07-30T02:30:34;22.38;;;20.08;;
57828;SDS011;43657;52.698;6.314;2022-07-30T02:33:02;31.75;;;20.13;;
57828;SDS011;43657;52.698;6.314;2022-07-30T02:35:30;22.40;;;18.30;;
57828;SDS011;43657;52.698;6.314;2022-07-30T02:37:57;19.38;;;17.33;;
57828;SDS011;43657;52.698;6.314;2022-07-30T02:40:25;20.73;;;18.15;;
57828;SDS011;43657;52.698;6.314;2022-07-30T02:42:52;18.90;;;16.90;;
57828;SDS011;43657;52.698;6.314;2022-07-30T02:45:19;21.67;;;17.50;;
57828;SDS011;43657;52.698;6.314;2022-07-30T02:47:49;22.73;;;17.83;;
57828;SDS011;43657;52.698;6.314;2022-07-30T02:50:17;18.92;;;15.70;;
57828;SDS011;43657;52.698;6.314;2022-07-30T02:52:44;18.10;;;16.20;;
57828;SDS011;43657;52.698;6.314;2022-07-30T02:55:11;31.30;;;19.05;;
57828;SDS011;43657;52.698;6.314;2022-07-30T02:57:39;18.88;;;15.50;;
57828;SDS011;43657;52.698;6.314;2022-07-30T03:00:07;17.88;;;15.80;;
57828;SDS011;43657;52.698;6.314;2022-07-30T03:02:33;29.55;;;17.80;;
57828;SDS011;43657;52.698;6.314;2022-07-30T03:05:01;19.63;;;15.50;;
57828;SDS011;43657;52.698;6.314;2022-07-30T03:07:28;16.98;;;14.15;;
57828;SDS011;43657;52.698;6.314;2022-07-30T03:09:55;15.73;;;14.02;;
57828;SDS011;43657;52.698;6.314;2022-07-30T03:12:23;18.08;;;14.23;;
57828;SDS011;43657;52.698;6.314;2022-07-30T03:14:51;17.55;;;13.77;;
57828;SDS011;43657;52.698;6.314;2022-07-30T03:17:16;16.30;;;14.27;;
57828;SDS011;43657;52.698;6.314;2022-07-30T03:19:44;15.60;;;14.05;;
57828;SDS011;43657;52.698;6.314;2022-07-30T03:22:12;16.92;;;14.15;;
57828;SDS011;43657;52.698;6.314;2022-07-30T03:24:41;14.15;;;12.07;;
57828;SDS011;43657;52.698;6.314;2022-07-30T03:27:08;16.27;;;12.60;;
57828;SDS011;43657;52.698;6.314;2022-07-30T03:29:34;14.48;;;12.88;;
57828;SDS011;43657;52.698;6.314;2022-07-30T03:32:02;14.57;;;11.77;;
57828;SDS011;43657;52.698;6.314;2022-07-30T03:34:30;14.18;;;12.48;;
57828;SDS011;43657;52.698;6.314;2022-07-30T03:37:00;13.25;;;10.88;;
57828;SDS011;43657;52.698;6.314;2022-07-30T03:39:28;12.30;;;11.07;;
57828;SDS011;43657;52.698;6.314;2022-07-30T03:41:58;12.82;;;11.63;;
57828;SDS011;43657;52.698;6.314;2022-07-30T03:44:25;11.23;;;10.13;;
57828;SDS011;43657;52.698;6.314;2022-07-30T03:46:51;11.23;;;10.13;;
57828;SDS011;43657;52.698;6.314;2022-07-30T03:49:19;11.70;;;10.43;;
57828;SDS011;43657;52.698;6.314;2022-07-30T03:51:47;14.48;;;10.15;;
57828;SDS011;43657;52.698;6.314;2022-07-30T03:54:13;13.10;;;11.90;;
57828;SDS011;43657;52.698;6.314;2022-07-30T03:56:40;21.58;;;12.05;;
57828;SDS011;43657;52.698;6.314;2022-07-30T03:59:06;22.98;;;11.10;;
57828;SDS011;43657;52.698;6.314;2022-07-30T04:01:32;19.45;;;11.52;;
57828;SDS011;43657;52.698;6.314;2022-07-30T04:04:06;14.38;;;9.80;;
57828;SDS011;43657;52.698;6.314;2022-07-30T04:06:32;40.45;;;13.40;;
57828;SDS011;43657;52.698;6.314;2022-07-30T04:09:04;17.17;;;12.27;;
57828;SDS011;43657;52.698;6.314;2022-07-30T04:11:33;12.52;;;11.27;;
57828;SDS011;43657;52.698;6.314;2022-07-30T04:13:59;18.92;;;10.48;;
57828;SDS011;43657;52.698;6.314;2022-07-30T04:16:28;12.93;;;10.77;;
57828;SDS011;43657;52.698;6.314;2022-07-30T04:19:07;22.73;;;10.35;;
57828;SDS011;43657;52.698;6.314;2022-07-30T04:21:39;12.88;;;10.25;;
57828;SDS011;43657;52.698;6.314;2022-07-30T04:24:06;13.63;;;9.90;;
57828;SDS011;43657;52.698;6.314;2022-07-30T04:26:34;11.50;;;10.35;;
57828;SDS011;43657;52.698;6.314;2022-07-30T04:29:00;19.00;;;11.63;;
57828;SDS011;43657;52.698;6.314;2022-07-30T04:31:28;12.05;;;10.85;;
57828;SDS011;43657;52.698;6.314;2022-07-30T04:33:59;12.55;;;11.32;;
57828;SDS011;43657;52.698;6.314;2022-07-30T04:36:25;12.38;;;11.18;;
57828;SDS011;43657;52.698;6.314;2022-07-30T04:38:51;12.82;;;11.52;;
57828;SDS011;43657;52.698;6.314;2022-07-30T04:41:16;13.93;;;12.23;;
57828;SDS011;43657;52.698;6.314;2022-07-30T04:43:42;15.10;;;12.85;;
57828;SDS011;43657;52.698;6.314;2022-07-30T04:46:08;13.25;;;11.95;;
57828;SDS011;43657;52.698;6.314;2022-07-30T04:48:33;14.35;;;12.73;;
57828;SDS011;43657;52.698;6.314;2022-07-30T04:50:59;12.93;;;11.55;;
57828;SDS011;43657;52.698;6.314;2022-07-30T04:53:29;14.00;;;12.60;;
57828;SDS011;43657;52.698;6.314;2022-07-30T04:55:56;13.25;;;11.93;;
57828;SDS011;43657;52.698;6.314;2022-07-30T04:58:23;16.35;;;13.50;;
57828;SDS011;43657;52.698;6.314;2022-07-30T05:00:50;21.08;;;13.50;;
57828;SDS011;43657;52.698;6.314;2022-07-30T05:03:19;14.48;;;12.98;;
57828;SDS011;43657;52.698;6.314;2022-07-30T05:05:46;13.63;;;12.18;;
57828;SDS011;43657;52.698;6.314;2022-07-30T05:08:12;14.30;;;12.90;;
57828;SDS011;43657;52.698;6.314;2022-07-30T05:10:38;13.45;;;12.15;;
57828;SDS011;43657;52.698;6.314;2022-07-30T05:13:09;14.20;;;12.73;;
57828;SDS011;43657;52.698;6.314;2022-07-30T05:15:35;14.65;;;12.75;;
57828;SDS011;43657;52.698;6.314;2022-07-30T05:18:01;14.73;;;13.05;;
57828;SDS011;43657;52.698;6.314;2022-07-30T05:20:27;13.15;;;11.95;;
57828;SDS011;43657;52.698;6.314;2022-07-30T05:22:52;13.98;;;12.50;;
57828;SDS011;43657;52.698;6.314;2022-07-30T05:25:18;13.90;;;11.75;;
57828;SDS011;43657;52.698;6.314;2022-07-30T05:27:44;15.60;;;12.75;;
57828;SDS011;43657;52.698;6.314;2022-07-30T05:30:09;12.68;;;11.07;;
57828;SDS011;43657;52.698;6.314;2022-07-30T05:32:35;12.57;;;11.32;;
57828;SDS011;43657;52.698;6.314;2022-07-30T05:35:01;13.57;;;11.75;;
57828;SDS011;43657;52.698;6.314;2022-07-30T05:37:26;12.32;;;11.02;;
57828;SDS011;43657;52.698;6.314;2022-07-30T05:39:52;13.93;;;10.88;;
57828;SDS011;43657;52.698;6.314;2022-07-30T05:42:18;13.68;;;11.07;;
57828;SDS011;43657;52.698;6.314;2022-07-30T05:44:43;12.10;;;10.88;;
57828;SDS011;43657;52.698;6.314;2022-07-30T05:47:09;14.27;;;11.82;;
57828;SDS011;43657;52.698;6.314;2022-07-30T05:49:34;11.43;;;10.27;;
57828;SDS011;43657;52.698;6.314;2022-07-30T05:52:00;12.05;;;10.82;;
57828;SDS011;43657;52.698;6.314;2022-07-30T05:54:26;12.15;;;10.45;;
57828;SDS011;43657;52.698;6.314;2022-07-30T05:56:51;14.18;;;11.00;;
57828;SDS011;43657;52.698;6.314;2022-07-30T05:59:17;12.75;;;11.05;;
57828;SDS011;43657;52.698;6.314;2022-07-30T06:01:42;12.65;;;10.27;;
57828;SDS011;43657;52.698;6.314;2022-07-30T06:04:08;13.07;;;9.90;;
57828;SDS011;43657;52.698;6.314;2022-07-30T06:06:33;12.60;;;9.70;;
57828;SDS011;43657;52.698;6.314;2022-07-30T06:08:59;11.52;;;9.13;;
57828;SDS011;43657;52.698;6.314;2022-07-30T06:11:25;12.30;;;8.98;;
57828;SDS011;43657;52.698;6.314;2022-07-30T06:13:50;11.30;;;9.20;;
57828;SDS011;43657;52.698;6.314;2022-07-30T06:16:16;10.90;;;9.65;;
57828;SDS011;43657;52.698;6.314;2022-07-30T06:18:41;11.27;;;10.18;;
57828;SDS011;43657;52.698;6.314;2022-07-30T06:21:07;14.52;;;10.73;;
57828;SDS011;43657;52.698;6.314;2022-07-30T06:23:32;13.05;;;10.40;;
57828;SDS011;43657;52.698;6.314;2022-07-30T06:25:58;14.35;;;10.65;;
57828;SDS011;43657;52.698;6.314;2022-07-30T06:28:24;13.50;;;10.95;;
57828;SDS011;43657;52.698;6.314;2022-07-30T06:30:49;15.43;;;10.48;;
57828;SDS011;43657;52.698;6.314;2022-07-30T06:33:15;11.88;;;10.55;;
57828;SDS011;43657;52.698;6.314;2022-07-30T06:35:41;11.82;;;10.18;;
57828;SDS011;43657;52.698;6.314;2022-07-30T06:38:07;15.90;;;10.43;;
57828;SDS011;43657;52.698;6.314;2022-07-30T06:40:32;12.57;;;9.80;;
57828;SDS011;43657;52.698;6.314;2022-07-30T06:42:58;11.88;;;10.68;;
57828;SDS011;43657;52.698;6.314;2022-07-30T06:45:24;13.48;;;9.07;;
57828;SDS011;43657;52.698;6.314;2022-07-30T06:47:49;15.48;;;10.07;;
57828;SDS011;43657;52.698;6.314;2022-07-30T06:50:15;11.90;;;8.70;;
57828;SDS011;43657;52.698;6.314;2022-07-30T06:52:42;13.07;;;11.52;;
57828;SDS011;43657;52.698;6.314;2022-07-30T06:55:08;13.70;;;11.63;;
57828;SDS011;43657;52.698;6.314;2022-07-30T06:57:34;15.75;;;11.90;;
57828;SDS011;43657;52.698;6.314;2022-07-30T07:00:00;14.80;;;11.45;;
57828;SDS011;43657;52.698;6.314;2022-07-30T07:02:25;10.73;;;8.82;;
57828;SDS011;43657;52.698;6.314;2022-07-30T07:04:51;11.38;;;9.32;;
57828;SDS011;43657;52.698;6.314;2022-07-30T07:07:16;12.48;;;8.90;;
57828;SDS011;43657;52.698;6.314;2022-07-30T07:09:42;9.55;;;7.68;;
57828;SDS011;43657;52.698;6.314;2022-07-30T07:12:08;10.43;;;7.60;;
57828;SDS011;43657;52.698;6.314;2022-07-30T07:14:33;10.55;;;7.35;;
57828;SDS011;43657;52.698;6.314;2022-07-30T07:16:59;10.00;;;7.28;;
57828;SDS011;43657;52.698;6.314;2022-07-30T07:19:25;9.20;;;6.88;;
57828;SDS011;43657;52.698;6.314;2022-07-30T07:21:50;10.63;;;6.55;;
57828;SDS011;43657;52.698;6.314;2022-07-30T07:24:16;11.07;;;6.53;;
57828;SDS011;43657;52.698;6.314;2022-07-30T07:26:41;12.32;;;6.72;;
57828;SDS011;43657;52.698;6.314;2022-07-30T07:29:07;9.77;;;5.82;;
57828;SDS011;43657;52.698;6.314;2022-07-30T07:31:33;8.23;;;5.53;;
57828;SDS011;43657;52.698;6.314;2022-07-30T07:33:59;7.80;;;4.97;;
57828;SDS011;43657;52.698;6.314;2022-07-30T07:36:24;7.70;;;4.72;;
57828;SDS011;43657;52.698;6.314;2022-07-30T07:38:50;8.65;;;4.85;;
57828;SDS011;43657;52.698;6.314;2022-07-30T07:41:15;5.85;;;4.40;;
57828;SDS011;43657;52.698;6.314;2022-07-30T07:43:41;6.88;;;3.97;;
57828;SDS011;43657;52.698;6.314;2022-07-30T07:46:07;5.60;;;4.10;;
57828;SDS011;43657;52.698;6.314;2022-07-30T07:48:33;8.98;;;4.47;;
57828;SDS011;43657;52.698;6.314;2022-07-30T07:50:58;5.95;;;4.75;;
57828;SDS011;43657;52.698;6.314;2022-07-30T07:53:24;8.27;;;5.38;;
57828;SDS011;43657;52.698;6.314;2022-07-30T07:55:50;9.93;;;6.07;;
57828;SDS011;43657;52.698;6.314;2022-07-30T07:58:16;10.18;;;6.05;;
57828;SDS011;43657;52.698;6.314;2022-07-30T08:00:42;10.15;;;5.72;;
57828;SDS011;43657;52.698;6.314;2022-07-30T08:03:08;9.95;;;6.15;;
57828;SDS011;43657;52.698;6.314;2022-07-30T08:05:33;8.45;;;6.13;;
57828;SDS011;43657;52.698;6.314;2022-07-30T08:07:59;8.20;;;5.90;;
57828;SDS011;43657;52.698;6.314;2022-07-30T08:10:25;8.43;;;6.18;;
57828;SDS011;43657;52.698;6.314;2022-07-30T08:12:53;9.50;;;5.80;;
57828;SDS011;43657;52.698;6.314;2022-07-30T08:15:30;8.70;;;5.60;;
57828;SDS011;43657;52.698;6.314;2022-07-30T08:18:15;6.43;;;4.90;;
57828;SDS011;43657;52.698;6.314;2022-07-30T08:20:40;6.68;;;4.30;;
57828;SDS011;43657;52.698;6.314;2022-07-30T08:23:06;7.25;;;4.20;;
57828;SDS011;43657;52.698;6.314;2022-07-30T08:25:32;11.88;;;4.72;;
57828;SDS011;43657;52.698;6.314;2022-07-30T08:28:01;7.35;;;4.55;;
57828;SDS011;43657;52.698;6.314;2022-07-30T08:30:31;6.10;;;4.10;;
57828;SDS011;43657;52.698;6.314;2022-07-30T08:32:59;8.10;;;4.03;;
57828;SDS011;43657;52.698;6.314;2022-07-30T08:35:27;6.75;;;4.20;;
57828;SDS011;43657;52.698;6.314;2022-07-30T08:37:56;8.27;;;4.25;;
57828;SDS011;43657;52.698;6.314;2022-07-30T08:43:40;5.55;;;3.17;;
57828;SDS011;43657;52.698;6.314;2022-07-30T08:46:14;6.35;;;3.08;;
57828;SDS011;43657;52.698;6.314;2022-07-30T08:48:42;5.72;;;2.63;;
57828;SDS011;43657;52.698;6.314;2022-07-30T08:51:09;5.07;;;2.60;;
57828;SDS011;43657;52.698;6.314;2022-07-30T08:53:35;6.30;;;3.20;;
57828;SDS011;43657;52.698;6.314;2022-07-30T08:56:01;5.63;;;3.15;;
57828;SDS011;43657;52.698;6.314;2022-07-30T09:01:19;4.80;;;2.40;;
57828;SDS011;43657;52.698;6.314;2022-07-30T09:03:46;3.97;;;2.50;;
57828;SDS011;43657;52.698;6.314;2022-07-30T09:06:12;1.90;;;1.60;;
57828;SDS011;43657;52.698;6.314;2022-07-30T09:08:40;3.67;;;1.77;;
57828;SDS011;43657;52.698;6.314;2022-07-30T09:11:06;4.15;;;2.15;;
57828;SDS011;43657;52.698;6.314;2022-07-30T09:13:33;7.25;;;3.22;;
57828;SDS011;43657;52.698;6.314;2022-07-30T09:16:00;3.72;;;2.40;;
57828;SDS011;43657;52.698;6.314;2022-07-30T09:20:52;4.72;;;2.22;;
57828;SDS011;43657;52.698;6.314;2022-07-30T09:23:18;3.88;;;2.13;;
57828;SDS011;43657;52.698;6.314;2022-07-30T09:25:44;4.10;;;2.00;;
57828;SDS011;43657;52.698;6.314;2022-07-30T09:28:12;4.32;;;1.77;;
57828;SDS011;43657;52.698;6.314;2022-07-30T09:30:48;3.28;;;1.80;;
57828;SDS011;43657;52.698;6.314;2022-07-30T09:36:04;5.80;;;2.00;;
57828;SDS011;43657;52.698;6.314;2022-07-30T09:38:48;4.50;;;1.77;;
57828;SDS011;43657;52.698;6.314;2022-07-30T09:41:18;5.20;;;2.00;;
57828;SDS011;43657;52.698;6.314;2022-07-30T09:43:55;4.55;;;2.25;;
57828;SDS011;43657;52.698;6.314;2022-07-30T09:46:21;3.33;;;2.15;;
57828;SDS011;43657;52.698;6.314;2022-07-30T09:48:47;3.83;;;2.28;;
57828;SDS011;43657;52.698;6.314;2022-07-30T09:51:13;4.25;;;1.98;;
57828;SDS011;43657;52.698;6.314;2022-07-30T09:53:55;2.38;;;1.70;;
57828;SDS011;43657;52.698;6.314;2022-07-30T09:56:23;4.20;;;1.90;;
57828;SDS011;43657;52.698;6.314;2022-07-30T09:58:51;2.95;;;1.63;;
57828;SDS011;43657;52.698;6.314;2022-07-30T10:01:17;3.10;;;1.55;;
57828;SDS011;43657;52.698;6.314;2022-07-30T10:03:42;3.30;;;1.77;;
57828;SDS011;43657;52.698;6.314;2022-07-30T10:06:09;2.88;;;1.80;;
57828;SDS011;43657;52.698;6.314;2022-07-30T10:11:09;3.78;;;1.48;;
57828;SDS011;43657;52.698;6.314;2022-07-30T10:13:40;4.35;;;1.70;;
57828;SDS011;43657;52.698;6.314;2022-07-30T10:16:06;3.85;;;1.90;;
57828;SDS011;43657;52.698;6.314;2022-07-30T10:18:33;1.95;;;1.50;;
57828;SDS011;43657;52.698;6.314;2022-07-30T10:21:00;2.53;;;1.67;;
57828;SDS011;43657;52.698;6.314;2022-07-30T10:23:28;3.67;;;1.60;;
57828;SDS011;43657;52.698;6.314;2022-07-30T10:25:54;2.75;;;1.70;;
57828;SDS011;43657;52.698;6.314;2022-07-30T10:28:21;3.70;;;1.60;;
57828;SDS011;43657;52.698;6.314;2022-07-30T10:30:48;2.10;;;1.30;;
57828;SDS011;43657;52.698;6.314;2022-07-30T10:33:15;3.50;;;1.65;;
57828;SDS011;43657;52.698;6.314;2022-07-30T10:35:42;2.10;;;1.35;;
57828;SDS011;43657;52.698;6.314;2022-07-30T10:38:08;4.00;;;1.42;;
57828;SDS011;43657;52.698;6.314;2022-07-30T10:40:37;2.47;;;1.45;;
57828;SDS011;43657;52.698;6.314;2022-07-30T10:46:05;3.28;;;1.55;;
57828;SDS011;43657;52.698;6.314;2022-07-30T10:48:39;5.28;;;1.60;;
57828;SDS011;43657;52.698;6.314;2022-07-30T10:51:05;2.33;;;1.20;;
57828;SDS011;43657;52.698;6.314;2022-07-30T10:53:35;1.58;;;1.05;;
57828;SDS011;43657;52.698;6.314;2022-07-30T11:02:07;2.45;;;1.02;;
57828;SDS011;43657;52.698;6.314;2022-07-30T11:06:51;2.97;;;1.60;;
57828;SDS011;43657;52.698;6.314;2022-07-30T11:09:37;2.92;;;1.35;;
57828;SDS011;43657;52.698;6.314;2022-07-30T11:12:05;2.15;;;1.13;;
57828;SDS011;43657;52.698;6.314;2022-07-30T11:17:16;1.35;;;1.00;;
57828;SDS011;43657;52.698;6.314;2022-07-30T11:22:27;3.15;;;1.25;;
57828;SDS011;43657;52.698;6.314;2022-07-30T11:25:05;2.38;;;1.20;;
57828;SDS011;43657;52.698;6.314;2022-07-30T11:27:46;5.50;;;1.30;;
57828;SDS011;43657;52.698;6.314;2022-07-30T11:32:40;1.80;;;1.10;;
57828;SDS011;43657;52.698;6.314;2022-07-30T11:35:13;1.60;;;0.93;;
57828;SDS011;43657;52.698;6.314;2022-07-30T11:41:18;2.90;;;1.23;;
57828;SDS011;43657;52.698;6.314;2022-07-30T11:43:23;2.35;;;1.15;;
57828;SDS011;43657;52.698;6.314;2022-07-30T11:48:40;3.65;;;1.38;;
57828;SDS011;43657;52.698;6.314;2022-07-30T11:51:08;2.45;;;1.13;;
57828;SDS011;43657;52.698;6.314;2022-07-30T11:53:34;3.05;;;1.30;;
57828;SDS011;43657;52.698;6.314;2022-07-30T11:56:01;2.55;;;1.30;;
57828;SDS011;43657;52.698;6.314;2022-07-30T12:01:00;2.22;;;1.27;;
57828;SDS011;43657;52.698;6.314;2022-07-30T12:03:28;3.20;;;0.90;;
57828;SDS011;43657;52.698;6.314;2022-07-30T12:06:04;2.92;;;1.05;;
57828;SDS011;43657;52.698;6.314;2022-07-30T12:08:44;4.00;;;1.30;;
57828;SDS011;43657;52.698;6.314;2022-07-30T12:11:11;3.28;;;1.23;;
57828;SDS011;43657;52.698;6.314;2022-07-30T12:13:37;2.85;;;1.05;;
57828;SDS011;43657;52.698;6.314;2022-07-30T12:16:08;4.32;;;1.20;;
57828;SDS011;43657;52.698;6.314;2022-07-30T12:18:38;1.95;;;0.82;;
57828;SDS011;43657;52.698;6.314;2022-07-30T12:21:04;2.45;;;1.25;;
57828;SDS011;43657;52.698;6.314;2022-07-30T12:23:35;1.40;;;0.90;;
57828;SDS011;43657;52.698;6.314;2022-07-30T12:26:01;2.55;;;1.00;;
57828;SDS011;43657;52.698;6.314;2022-07-30T12:28:28;2.33;;;1.00;;
57828;SDS011;43657;52.698;6.314;2022-07-30T12:30:57;2.67;;;0.85;;
57828;SDS011;43657;52.698;6.314;2022-07-30T12:33:24;3.97;;;0.90;;
57828;SDS011;43657;52.698;6.314;2022-07-30T12:35:54;4.05;;;1.00;;
57828;SDS011;43657;52.698;6.314;2022-07-30T12:38:22;1.45;;;1.00;;
57828;SDS011;43657;52.698;6.314;2022-07-30T12:41:10;1.50;;;0.85;;
57828;SDS011;43657;52.698;6.314;2022-07-30T12:43:54;1.58;;;0.80;;
57828;SDS011;43657;52.698;6.314;2022-07-30T12:46:24;1.48;;;0.90;;
57828;SDS011;43657;52.698;6.314;2022-07-30T12:49:01;2.63;;;1.10;;
57828;SDS011;43657;52.698;6.314;2022-07-30T12:51:28;2.10;;;0.80;;
57828;SDS011;43657;52.698;6.314;2022-07-30T12:53:56;1.23;;;0.60;;
57828;SDS011;43657;52.698;6.314;2022-07-30T12:56:24;1.27;;;0.68;;
57828;SDS011;43657;52.698;6.314;2022-07-30T12:58:52;1.45;;;0.80;;
57828;SDS011;43657;52.698;6.314;2022-07-30T13:01:37;1.67;;;0.75;;
57828;SDS011;43657;52.698;6.314;2022-07-30T13:04:05;1.40;;;0.75;;
57828;SDS011;43657;52.698;6.314;2022-07-30T13:06:32;1.42;;;0.73;;
57828;SDS011;43657;52.698;6.314;2022-07-30T13:08:58;1.38;;;0.85;;
57828;SDS011;43657;52.698;6.314;2022-07-30T13:11:25;26.90;;;2.17;;
57828;SDS011;43657;52.698;6.314;2022-07-30T13:13:52;5.63;;;0.90;;
57828;SDS011;43657;52.698;6.314;2022-07-30T13:16:18;14.32;;;1.42;;
57828;SDS011;43657;52.698;6.314;2022-07-30T13:18:44;1.40;;;0.75;;
57828;SDS011;43657;52.698;6.314;2022-07-30T13:21:10;1.75;;;0.75;;
57828;SDS011;43657;52.698;6.314;2022-07-30T13:23:37;1.40;;;0.77;;
57828;SDS011;43657;52.698;6.314;2022-07-30T13:26:05;1.92;;;0.88;;
57828;SDS011;43657;52.698;6.314;2022-07-30T13:28:32;1.77;;;0.80;;
57828;SDS011;43657;52.698;6.314;2022-07-30T13:30:58;1.67;;;0.88;;
57828;SDS011;43657;52.698;6.314;2022-07-30T13:33:24;1.55;;;0.77;;
57828;SDS011;43657;52.698;6.314;2022-07-30T13:35:50;1.92;;;0.90;;
57828;SDS011;43657;52.698;6.314;2022-07-30T13:38:16;4.90;;;1.13;;
57828;SDS011;43657;52.698;6.314;2022-07-30T13:40:42;1.27;;;0.90;;
57828;SDS011;43657;52.698;6.314;2022-07-30T13:43:08;2.00;;;0.90;;
57828;SDS011;43657;52.698;6.314;2022-07-30T13:45:34;2.25;;;0.90;;
57828;SDS011;43657;52.698;6.314;2022-07-30T13:48:00;2.47;;;0.95;;
57828;SDS011;43657;52.698;6.314;2022-07-30T13:50:25;2.40;;;0.95;;
57828;SDS011;43657;52.698;6.314;2022-07-30T13:52:51;2.35;;;0.85;;
57828;SDS011;43657;52.698;6.314;2022-07-30T13:55:17;1.20;;;0.82;;
57828;SDS011;43657;52.698;6.314;2022-07-30T13:57:42;1.15;;;0.68;;
57828;SDS011;43657;52.698;6.314;2022-07-30T14:00:08;1.13;;;0.80;;
57828;SDS011;43657;52.698;6.314;2022-07-30T14:02:35;2.80;;;0.90;;
57828;SDS011;43657;52.698;6.314;2022-07-30T14:05:00;1.60;;;1.00;;
57828;SDS011;43657;52.698;6.314;2022-07-30T14:07:31;1.15;;;0.88;;
57828;SDS011;43657;52.698;6.314;2022-07-30T14:10:00;2.97;;;0.75;;
57828;SDS011;43657;52.698;6.314;2022-07-30T14:12:27;2.25;;;0.90;;
57828;SDS011;43657;52.698;6.314;2022-07-30T14:14:53;1.73;;;0.98;;
57828;SDS011;43657;52.698;6.314;2022-07-30T14:17:19;1.92;;;0.80;;
57828;SDS011;43657;52.698;6.314;2022-07-30T14:19:44;1.33;;;0.80;;
57828;SDS011;43657;52.698;6.314;2022-07-30T14:22:11;2.58;;;1.00;;
57828;SDS011;43657;52.698;6.314;2022-07-30T14:24:37;4.45;;;1.20;;
57828;SDS011;43657;52.698;6.314;2022-07-30T14:27:02;1.02;;;0.80;;
57828;SDS011;43657;52.698;6.314;2022-07-30T14:29:33;1.67;;;1.10;;
57828;SDS011;43657;52.698;6.314;2022-07-30T14:31:59;1.83;;;1.00;;
57828;SDS011;43657;52.698;6.314;2022-07-30T14:34:28;3.92;;;1.00;;
57828;SDS011;43657;52.698;6.314;2022-07-30T14:36:57;2.00;;;1.10;;
57828;SDS011;43657;52.698;6.314;2022-07-30T14:39:24;1.30;;;1.02;;
57828;SDS011;43657;52.698;6.314;2022-07-30T14:41:50;1.38;;;1.00;;
57828;SDS011;43657;52.698;6.314;2022-07-30T14:44:17;1.83;;;0.90;;
57828;SDS011;43657;52.698;6.314;2022-07-30T14:46:49;1.10;;;0.88;;
57828;SDS011;43657;52.698;6.314;2022-07-30T14:49:15;1.85;;;0.85;;
57828;SDS011;43657;52.698;6.314;2022-07-30T14:51:41;2.58;;;1.00;;
57828;SDS011;43657;52.698;6.314;2022-07-30T14:54:08;2.70;;;0.90;;
57828;SDS011;43657;52.698;6.314;2022-07-30T14:56:36;1.20;;;0.88;;
57828;SDS011;43657;52.698;6.314;2022-07-30T14:59:07;2.20;;;1.17;;
57828;SDS011;43657;52.698;6.314;2022-07-30T15:01:33;50.08;;;3.67;;
57828;SDS011;43657;52.698;6.314;2022-07-30T15:04:00;4.25;;;1.15;;
57828;SDS011;43657;52.698;6.314;2022-07-30T15:06:34;2.50;;;0.90;;
57828;SDS011;43657;52.698;6.314;2022-07-30T15:09:01;1.20;;;0.88;;
57828;SDS011;43657;52.698;6.314;2022-07-30T15:11:27;2.25;;;1.00;;
57828;SDS011;43657;52.698;6.314;2022-07-30T15:13:56;2.42;;;1.17;;
57828;SDS011;43657;52.698;6.314;2022-07-30T15:16:24;1.75;;;1.10;;
57828;SDS011;43657;52.698;6.314;2022-07-30T15:18:51;1.33;;;1.02;;
57828;SDS011;43657;52.698;6.314;2022-07-30T15:21:24;1.70;;;0.82;;
57828;SDS011;43657;52.698;6.314;2022-07-30T15:23:53;3.13;;;1.23;;
57828;SDS011;43657;52.698;6.314;2022-07-30T15:26:24;2.03;;;1.10;;